sensor_id;sensor_type;location;lat;lon;timestamp;temperature;humidity
32217;DHT22;67098;51.140;4.088;2023-07-20T00:01:07;21.10;80.30
32217;DHT22;67098;51.140;4.088;2023-07-20T00:03:33;21.10;80.90
32217;DHT22;67098;51.140;4.088;2023-07-20T00:05:59;21.10;81.20
32217;DHT22;67098;51.140;4.088;2023-07-20T00:08:24;21.00;81.60
32217;DHT22;67098;51.140;4.088;2023-07-20T00:10:50;21.10;81.50
32217;DHT22;67098;51.140;4.088;2023-07-20T00:13:16;21.10;81.50
32217;DHT22;67098;51.140;4.088;2023-07-20T00:15:44;21.10;81.40
32217;DHT22;67098;51.140;4.088;2023-07-20T00:18:09;21.00;81.50
32217;DHT22;67098;51.140;4.088;2023-07-20T00:20:35;21.00;82.00
32217;DHT22;67098;51.140;4.088;2023-07-20T00:23:01;21.00;81.90
32217;DHT22;67098;51.140;4.088;2023-07-20T00:25:27;20.90;82.50
32217;DHT22;67098;51.140;4.088;2023-07-20T00:27:53;20.90;82.90
32217;DHT22;67098;51.140;4.088;2023-07-20T00:30:18;20.80;83.20
32217;DHT22;67098;51.140;4.088;2023-07-20T00:32:44;20.80;83.50
32217;DHT22;67098;51.140;4.088;2023-07-20T00:35:10;20.60;83.70
32217;DHT22;67098;51.140;4.088;2023-07-20T00:37:37;20.50;84.40
32217;DHT22;67098;51.140;4.088;2023-07-20T00:40:03;20.50;85.00
32217;DHT22;67098;51.140;4.088;2023-07-20T00:42:35;20.50;85.00
32217;DHT22;67098;51.140;4.088;2023-07-20T00:45:01;20.50;84.70
32217;DHT22;67098;51.140;4.088;2023-07-20T00:47:27;20.50;84.70
32217;DHT22;67098;51.140;4.088;2023-07-20T00:49:53;20.50;85.00
32217;DHT22;67098;51.140;4.088;2023-07-20T00:52:22;20.50;85.00
32217;DHT22;67098;51.140;4.088;2023-07-20T00:54:49;20.50;84.90
32217;DHT22;67098;51.140;4.088;2023-07-20T00:57:15;20.50;85.50
32217;DHT22;67098;51.140;4.088;2023-07-20T00:59:43;20.50;84.90
32217;DHT22;67098;51.140;4.088;2023-07-20T01:02:09;20.50;84.80
32217;DHT22;67098;51.140;4.088;2023-07-20T01:04:35;20.40;85.30
32217;DHT22;67098;51.140;4.088;2023-07-20T01:07:10;20.40;85.60
32217;DHT22;67098;51.140;4.088;2023-07-20T01:09:58;20.40;85.50
32217;DHT22;67098;51.140;4.088;2023-07-20T01:12:33;20.40;85.40
32217;DHT22;67098;51.140;4.088;2023-07-20T01:15:01;20.30;85.70
32217;DHT22;67098;51.140;4.088;2023-07-20T01:17:27;20.30;86.10
32217;DHT22;67098;51.140;4.088;2023-07-20T01:19:53;20.20;85.90
32217;DHT22;67098;51.140;4.088;2023-07-20T01:33:42;20.30;85.70
32217;DHT22;67098;51.140;4.088;2023-07-20T01:36:10;20.10;86.00
32217;DHT22;67098;51.140;4.088;2023-07-20T01:38:37;20.10;86.30
32217;DHT22;67098;51.140;4.088;2023-07-20T01:41:03;20.10;86.50
32217;DHT22;67098;51.140;4.088;2023-07-20T01:43:29;20.10;86.60
32217;DHT22;67098;51.140;4.088;2023-07-20T01:45:54;20.10;86.50
32217;DHT22;67098;51.140;4.088;2023-07-20T01:48:20;20.10;86.30
32217;DHT22;67098;51.140;4.088;2023-07-20T01:50:46;20.10;86.30
32217;DHT22;67098;51.140;4.088;2023-07-20T01:53:11;20.00;86.40
32217;DHT22;67098;51.140;4.088;2023-07-20T01:55:37;20.00;86.70
32217;DHT22;67098;51.140;4.088;2023-07-20T01:58:03;20.00;86.90
32217;DHT22;67098;51.140;4.088;2023-07-20T02:00:29;20.00;86.90
32217;DHT22;67098;51.140;4.088;2023-07-20T02:02:55;20.00;86.80
32217;DHT22;67098;51.140;4.088;2023-07-20T02:05:20;20.00;86.80
32217;DHT22;67098;51.140;4.088;2023-07-20T02:07:46;20.00;87.00
32217;DHT22;67098;51.140;4.088;2023-07-20T02:10:12;20.00;86.90
32217;DHT22;67098;51.140;4.088;2023-07-20T02:12:38;20.00;86.70
32217;DHT22;67098;51.140;4.088;2023-07-20T02:15:04;19.90;86.50
32217;DHT22;67098;51.140;4.088;2023-07-20T02:17:29;19.90;86.60
32217;DHT22;67098;51.140;4.088;2023-07-20T02:19:56;19.90;86.40
32217;DHT22;67098;51.140;4.088;2023-07-20T02:22:23;19.80;86.50
32217;DHT22;67098;51.140;4.088;2023-07-20T02:24:49;19.80;86.60
32217;DHT22;67098;51.140;4.088;2023-07-20T02:27:16;19.80;86.50
32217;DHT22;67098;51.140;4.088;2023-07-20T02:29:42;19.80;86.70
32217;DHT22;67098;51.140;4.088;2023-07-20T02:32:08;19.70;86.70
32217;DHT22;67098;51.140;4.088;2023-07-20T02:34:37;19.70;86.90
32217;DHT22;67098;51.140;4.088;2023-07-20T02:37:02;19.70;87.20
32217;DHT22;67098;51.140;4.088;2023-07-20T02:39:28;19.70;87.50
32217;DHT22;67098;51.140;4.088;2023-07-20T02:41:54;19.60;87.40
32217;DHT22;67098;51.140;4.088;2023-07-20T02:44:20;19.60;87.50
32217;DHT22;67098;51.140;4.088;2023-07-20T02:46:46;19.60;87.70
32217;DHT22;67098;51.140;4.088;2023-07-20T02:49:11;19.60;88.20
32217;DHT22;67098;51.140;4.088;2023-07-20T02:51:37;19.60;88.10
32217;DHT22;67098;51.140;4.088;2023-07-20T02:54:03;19.70;88.10
32217;DHT22;67098;51.140;4.088;2023-07-20T02:56:29;19.70;88.00
32217;DHT22;67098;51.140;4.088;2023-07-20T02:58:55;19.70;88.10
32217;DHT22;67098;51.140;4.088;2023-07-20T03:01:21;19.80;88.20
32217;DHT22;67098;51.140;4.088;2023-07-20T03:03:46;19.80;88.20
32217;DHT22;67098;51.140;4.088;2023-07-20T03:06:16;19.80;88.50
32217;DHT22;67098;51.140;4.088;2023-07-20T03:08:45;19.80;88.40
32217;DHT22;67098;51.140;4.088;2023-07-20T03:11:13;19.80;88.60
32217;DHT22;67098;51.140;4.088;2023-07-20T03:13:41;19.80;88.80
32217;DHT22;67098;51.140;4.088;2023-07-20T03:16:08;19.80;88.80
32217;DHT22;67098;51.140;4.088;2023-07-20T03:18:39;19.70;89.00
32217;DHT22;67098;51.140;4.088;2023-07-20T03:21:06;19.80;89.20
32217;DHT22;67098;51.140;4.088;2023-07-20T03:23:32;19.80;89.20
32217;DHT22;67098;51.140;4.088;2023-07-20T03:25:58;19.80;89.40
32217;DHT22;67098;51.140;4.088;2023-07-20T03:28:24;19.80;89.40
32217;DHT22;67098;51.140;4.088;2023-07-20T03:30:53;19.80;89.60
32217;DHT22;67098;51.140;4.088;2023-07-20T03:33:25;19.80;89.70
32217;DHT22;67098;51.140;4.088;2023-07-20T03:35:51;19.80;89.90
32217;DHT22;67098;51.140;4.088;2023-07-20T03:38:18;19.80;89.80
32217;DHT22;67098;51.140;4.088;2023-07-20T03:41:01;19.80;89.80
32217;DHT22;67098;51.140;4.088;2023-07-20T03:43:28;19.90;89.50
32217;DHT22;67098;51.140;4.088;2023-07-20T03:45:54;19.80;89.90
32217;DHT22;67098;51.140;4.088;2023-07-20T03:48:22;19.90;89.80
32217;DHT22;67098;51.140;4.088;2023-07-20T03:50:49;19.90;89.90
32217;DHT22;67098;51.140;4.088;2023-07-20T03:53:16;19.90;89.80
32217;DHT22;67098;51.140;4.088;2023-07-20T03:55:46;19.80;89.70
32217;DHT22;67098;51.140;4.088;2023-07-20T03:58:13;19.80;89.70
32217;DHT22;67098;51.140;4.088;2023-07-20T04:00:39;19.80;89.70
32217;DHT22;67098;51.140;4.088;2023-07-20T04:03:05;19.80;89.60
32217;DHT22;67098;51.140;4.088;2023-07-20T04:05:31;19.80;89.80
32217;DHT22;67098;51.140;4.088;2023-07-20T04:07:56;19.80;89.80
32217;DHT22;67098;51.140;4.088;2023-07-20T04:10:22;19.80;90.00
32217;DHT22;67098;51.140;4.088;2023-07-20T04:12:48;19.80;89.90
32217;DHT22;67098;51.140;4.088;2023-07-20T04:15:14;19.70;90.00
32217;DHT22;67098;51.140;4.088;2023-07-20T04:17:40;19.80;90.00
32217;DHT22;67098;51.140;4.088;2023-07-20T04:20:07;19.80;90.10
32217;DHT22;67098;51.140;4.088;2023-07-20T04:22:33;19.80;90.00
32217;DHT22;67098;51.140;4.088;2023-07-20T04:24:59;19.90;90.10
32217;DHT22;67098;51.140;4.088;2023-07-20T04:27:24;19.90;90.00
32217;DHT22;67098;51.140;4.088;2023-07-20T04:29:50;19.90;90.10
32217;DHT22;67098;51.140;4.088;2023-07-20T04:32:16;19.90;90.10
32217;DHT22;67098;51.140;4.088;2023-07-20T04:34:42;19.90;90.20
32217;DHT22;67098;51.140;4.088;2023-07-20T04:37:08;20.00;90.10
32217;DHT22;67098;51.140;4.088;2023-07-20T04:39:33;20.00;90.10
32217;DHT22;67098;51.140;4.088;2023-07-20T04:41:59;20.00;89.90
32217;DHT22;67098;51.140;4.088;2023-07-20T04:44:25;20.00;90.00
32217;DHT22;67098;51.140;4.088;2023-07-20T04:46:51;20.00;90.00
32217;DHT22;67098;51.140;4.088;2023-07-20T04:49:16;20.00;90.10
32217;DHT22;67098;51.140;4.088;2023-07-20T04:51:42;20.00;90.10
32217;DHT22;67098;51.140;4.088;2023-07-20T04:54:08;20.00;90.00
32217;DHT22;67098;51.140;4.088;2023-07-20T04:56:34;20.00;90.10
32217;DHT22;67098;51.140;4.088;2023-07-20T04:59:00;20.00;90.10
32217;DHT22;67098;51.140;4.088;2023-07-20T05:01:25;20.10;90.10
32217;DHT22;67098;51.140;4.088;2023-07-20T05:03:52;20.10;90.00
32217;DHT22;67098;51.140;4.088;2023-07-20T05:06:18;20.20;90.20
32217;DHT22;67098;51.140;4.088;2023-07-20T05:08:44;20.20;90.10
32217;DHT22;67098;51.140;4.088;2023-07-20T05:11:11;20.30;89.70
32217;DHT22;67098;51.140;4.088;2023-07-20T05:13:37;20.30;89.70
32217;DHT22;67098;51.140;4.088;2023-07-20T05:16:03;20.30;89.60
32217;DHT22;67098;51.140;4.088;2023-07-20T05:18:29;20.30;89.70
32217;DHT22;67098;51.140;4.088;2023-07-20T05:20:55;20.40;89.50
32217;DHT22;67098;51.140;4.088;2023-07-20T05:23:21;20.50;89.50
32217;DHT22;67098;51.140;4.088;2023-07-20T05:25:57;20.60;89.40
32217;DHT22;67098;51.140;4.088;2023-07-20T05:28:26;20.60;89.10
32217;DHT22;67098;51.140;4.088;2023-07-20T05:30:53;20.70;89.10
32217;DHT22;67098;51.140;4.088;2023-07-20T05:33:19;20.80;88.90
32217;DHT22;67098;51.140;4.088;2023-07-20T05:35:45;20.80;88.80
32217;DHT22;67098;51.140;4.088;2023-07-20T05:38:11;20.90;88.40
32217;DHT22;67098;51.140;4.088;2023-07-20T05:40:41;21.00;88.10
32217;DHT22;67098;51.140;4.088;2023-07-20T05:43:10;21.10;87.90
32217;DHT22;67098;51.140;4.088;2023-07-20T05:45:36;21.10;87.50
32217;DHT22;67098;51.140;4.088;2023-07-20T05:48:02;21.20;87.30
32217;DHT22;67098;51.140;4.088;2023-07-20T05:50:27;21.30;87.00
32217;DHT22;67098;51.140;4.088;2023-07-20T05:52:54;21.30;86.50
32217;DHT22;67098;51.140;4.088;2023-07-20T05:55:20;21.40;86.40
32217;DHT22;67098;51.140;4.088;2023-07-20T05:57:46;21.40;86.40
32217;DHT22;67098;51.140;4.088;2023-07-20T06:00:13;21.50;86.00
32217;DHT22;67098;51.140;4.088;2023-07-20T06:02:40;21.50;85.60
32217;DHT22;67098;51.140;4.088;2023-07-20T06:05:08;21.50;85.70
32217;DHT22;67098;51.140;4.088;2023-07-20T06:07:37;21.60;85.80
32217;DHT22;67098;51.140;4.088;2023-07-20T06:10:04;21.80;85.70
32217;DHT22;67098;51.140;4.088;2023-07-20T06:12:31;22.00;85.20
32217;DHT22;67098;51.140;4.088;2023-07-20T06:15:01;22.20;84.60
32217;DHT22;67098;51.140;4.088;2023-07-20T06:17:27;22.40;83.40
32217;DHT22;67098;51.140;4.088;2023-07-20T06:19:52;22.50;82.20
32217;DHT22;67098;51.140;4.088;2023-07-20T06:22:18;22.60;81.60
32217;DHT22;67098;51.140;4.088;2023-07-20T06:24:44;22.80;81.60
32217;DHT22;67098;51.140;4.088;2023-07-20T06:27:10;22.90;81.30
32217;DHT22;67098;51.140;4.088;2023-07-20T06:29:35;23.10;80.40
32217;DHT22;67098;51.140;4.088;2023-07-20T06:32:01;23.30;79.30
32217;DHT22;67098;51.140;4.088;2023-07-20T06:34:27;23.40;78.00
32217;DHT22;67098;51.140;4.088;2023-07-20T06:36:52;23.50;77.70
32217;DHT22;67098;51.140;4.088;2023-07-20T06:39:18;23.60;76.90
32217;DHT22;67098;51.140;4.088;2023-07-20T06:41:44;23.60;76.70
32217;DHT22;67098;51.140;4.088;2023-07-20T06:44:10;23.60;76.80
32217;DHT22;67098;51.140;4.088;2023-07-20T06:46:36;23.60;77.10
32217;DHT22;67098;51.140;4.088;2023-07-20T06:49:02;23.70;77.10
32217;DHT22;67098;51.140;4.088;2023-07-20T06:51:28;23.70;75.50
32217;DHT22;67098;51.140;4.088;2023-07-20T06:53:54;23.70;75.50
32217;DHT22;67098;51.140;4.088;2023-07-20T06:56:19;23.70;75.50
32217;DHT22;67098;51.140;4.088;2023-07-20T06:58:45;23.80;75.10
32217;DHT22;67098;51.140;4.088;2023-07-20T07:01:11;23.90;74.60
32217;DHT22;67098;51.140;4.088;2023-07-20T07:03:36;24.00;74.20
32217;DHT22;67098;51.140;4.088;2023-07-20T07:06:02;24.00;73.70
32217;DHT22;67098;51.140;4.088;2023-07-20T07:08:28;24.00;73.70
32217;DHT22;67098;51.140;4.088;2023-07-20T07:10:54;24.00;73.80
32217;DHT22;67098;51.140;4.088;2023-07-20T07:13:20;24.00;74.00
32217;DHT22;67098;51.140;4.088;2023-07-20T07:15:46;23.90;73.30
32217;DHT22;67098;51.140;4.088;2023-07-20T07:18:11;23.90;73.60
32217;DHT22;67098;51.140;4.088;2023-07-20T07:20:37;24.10;72.70
32217;DHT22;67098;51.140;4.088;2023-07-20T07:23:03;24.40;71.50
32217;DHT22;67098;51.140;4.088;2023-07-20T07:25:29;24.70;70.60
32217;DHT22;67098;51.140;4.088;2023-07-20T07:27:56;24.90;69.40
32217;DHT22;67098;51.140;4.088;2023-07-20T07:30:22;25.10;68.30
32217;DHT22;67098;51.140;4.088;2023-07-20T07:32:48;25.20;68.10
32217;DHT22;67098;51.140;4.088;2023-07-20T07:35:14;25.40;67.40
32217;DHT22;67098;51.140;4.088;2023-07-20T07:37:40;25.50;67.40
32217;DHT22;67098;51.140;4.088;2023-07-20T07:40:07;25.80;67.40
32217;DHT22;67098;51.140;4.088;2023-07-20T07:42:33;26.10;66.90
32217;DHT22;67098;51.140;4.088;2023-07-20T07:44:59;26.20;65.70
32217;DHT22;67098;51.140;4.088;2023-07-20T07:47:25;26.30;65.30
32217;DHT22;67098;51.140;4.088;2023-07-20T07:49:50;26.40;64.50
32217;DHT22;67098;51.140;4.088;2023-07-20T07:52:16;26.40;63.50
32217;DHT22;67098;51.140;4.088;2023-07-20T07:54:42;26.20;64.40
32217;DHT22;67098;51.140;4.088;2023-07-20T07:57:08;25.90;66.00
32217;DHT22;67098;51.140;4.088;2023-07-20T07:59:33;25.90;64.90
32217;DHT22;67098;51.140;4.088;2023-07-20T08:02:05;26.00;64.10
32217;DHT22;67098;51.140;4.088;2023-07-20T08:04:31;26.20;64.60
32217;DHT22;67098;51.140;4.088;2023-07-20T08:06:57;26.50;63.20
32217;DHT22;67098;51.140;4.088;2023-07-20T08:09:23;26.90;62.40
32217;DHT22;67098;51.140;4.088;2023-07-20T08:11:49;27.20;61.80
32217;DHT22;67098;51.140;4.088;2023-07-20T08:14:15;27.40;61.50
32217;DHT22;67098;51.140;4.088;2023-07-20T08:16:41;27.70;60.90
32217;DHT22;67098;51.140;4.088;2023-07-20T08:19:07;27.90;60.60
32217;DHT22;67098;51.140;4.088;2023-07-20T08:21:32;27.90;59.90
32217;DHT22;67098;51.140;4.088;2023-07-20T08:23:58;28.00;59.70
32217;DHT22;67098;51.140;4.088;2023-07-20T08:26:24;28.20;59.10
32217;DHT22;67098;51.140;4.088;2023-07-20T08:28:50;28.20;58.70
32217;DHT22;67098;51.140;4.088;2023-07-20T08:31:15;28.20;58.50
32217;DHT22;67098;51.140;4.088;2023-07-20T08:33:41;28.10;57.70
32217;DHT22;67098;51.140;4.088;2023-07-20T08:36:07;27.90;58.30
32217;DHT22;67098;51.140;4.088;2023-07-20T08:38:33;27.80;58.10
32217;DHT22;67098;51.140;4.088;2023-07-20T08:40:59;27.70;58.80
32217;DHT22;67098;51.140;4.088;2023-07-20T08:43:26;27.60;59.20
32217;DHT22;67098;51.140;4.088;2023-07-20T08:45:54;27.20;60.40
32217;DHT22;67098;51.140;4.088;2023-07-20T08:48:21;27.10;60.80
32217;DHT22;67098;51.140;4.088;2023-07-20T08:50:51;27.20;60.70
32217;DHT22;67098;51.140;4.088;2023-07-20T08:53:17;27.30;60.70
32217;DHT22;67098;51.140;4.088;2023-07-20T08:55:45;27.90;60.00
32217;DHT22;67098;51.140;4.088;2023-07-20T08:58:13;28.90;57.80
32217;DHT22;67098;51.140;4.088;2023-07-20T09:00:41;29.30;56.40
32217;DHT22;67098;51.140;4.088;2023-07-20T09:03:07;29.40;56.60
32217;DHT22;67098;51.140;4.088;2023-07-20T09:05:34;29.60;56.50
32217;DHT22;67098;51.140;4.088;2023-07-20T09:08:01;29.70;54.80
32217;DHT22;67098;51.140;4.088;2023-07-20T09:10:29;29.70;55.80
32217;DHT22;67098;51.140;4.088;2023-07-20T09:12:55;29.80;56.60
32217;DHT22;67098;51.140;4.088;2023-07-20T09:15:22;30.10;56.30
32217;DHT22;67098;51.140;4.088;2023-07-20T09:17:50;29.90;55.10
32217;DHT22;67098;51.140;4.088;2023-07-20T09:20:17;30.00;53.70
32217;DHT22;67098;51.140;4.088;2023-07-20T09:22:43;29.10;54.50
32217;DHT22;67098;51.140;4.088;2023-07-20T09:25:16;28.80;55.70
32217;DHT22;67098;51.140;4.088;2023-07-20T09:27:45;28.70;56.20
32217;DHT22;67098;51.140;4.088;2023-07-20T09:30:11;28.80;56.40
32217;DHT22;67098;51.140;4.088;2023-07-20T09:32:48;28.90;55.10
32217;DHT22;67098;51.140;4.088;2023-07-20T09:35:17;28.30;57.30
32217;DHT22;67098;51.140;4.088;2023-07-20T09:37:48;28.30;58.40
32217;DHT22;67098;51.140;4.088;2023-07-20T09:40:18;29.20;56.60
32217;DHT22;67098;51.140;4.088;2023-07-20T09:42:44;29.80;54.20
32217;DHT22;67098;51.140;4.088;2023-07-20T09:45:10;30.20;53.80
32217;DHT22;67098;51.140;4.088;2023-07-20T09:47:37;30.70;53.80
32217;DHT22;67098;51.140;4.088;2023-07-20T09:50:04;30.90;51.50
32217;DHT22;67098;51.140;4.088;2023-07-20T09:52:42;30.90;52.20
32217;DHT22;67098;51.140;4.088;2023-07-20T09:55:10;31.50;51.40
32217;DHT22;67098;51.140;4.088;2023-07-20T09:57:37;31.90;51.40
32217;DHT22;67098;51.140;4.088;2023-07-20T10:00:05;31.80;50.90
32217;DHT22;67098;51.140;4.088;2023-07-20T10:02:42;31.70;50.90
32217;DHT22;67098;51.140;4.088;2023-07-20T10:05:14;31.90;48.90
32217;DHT22;67098;51.140;4.088;2023-07-20T10:07:47;32.30;49.50
32217;DHT22;67098;51.140;4.088;2023-07-20T10:10:17;32.70;49.50
32217;DHT22;67098;51.140;4.088;2023-07-20T10:12:48;33.30;49.00
32217;DHT22;67098;51.140;4.088;2023-07-20T10:15:30;34.20;47.30
32217;DHT22;67098;51.140;4.088;2023-07-20T10:18:04;34.60;46.40
32217;DHT22;67098;51.140;4.088;2023-07-20T10:20:32;33.70;46.50
32217;DHT22;67098;51.140;4.088;2023-07-20T10:22:59;33.10;46.30
32217;DHT22;67098;51.140;4.088;2023-07-20T10:25:25;32.00;47.20
32217;DHT22;67098;51.140;4.088;2023-07-20T10:27:53;31.90;46.90
32217;DHT22;67098;51.140;4.088;2023-07-20T10:30:20;30.80;48.70
32217;DHT22;67098;51.140;4.088;2023-07-20T10:32:47;30.40;48.90
32217;DHT22;67098;51.140;4.088;2023-07-20T10:35:16;29.50;50.60
32217;DHT22;67098;51.140;4.088;2023-07-20T10:37:54;29.50;50.50
32217;DHT22;67098;51.140;4.088;2023-07-20T10:40:33;29.90;50.40
32217;DHT22;67098;51.140;4.088;2023-07-20T10:43:09;30.10;49.90
32217;DHT22;67098;51.140;4.088;2023-07-20T10:45:51;30.30;49.30
32217;DHT22;67098;51.140;4.088;2023-07-20T10:48:22;30.50;49.70
32217;DHT22;67098;51.140;4.088;2023-07-20T10:53:36;30.90;49.90
32217;DHT22;67098;51.140;4.088;2023-07-20T10:56:15;31.30;49.20
32217;DHT22;67098;51.140;4.088;2023-07-20T10:58:45;31.60;48.80
32217;DHT22;67098;51.140;4.088;2023-07-20T11:01:14;31.80;48.50
32217;DHT22;67098;51.140;4.088;2023-07-20T11:03:40;32.10;48.20
32217;DHT22;67098;51.140;4.088;2023-07-20T11:06:32;32.40;48.20
32217;DHT22;67098;51.140;4.088;2023-07-20T11:09:06;32.70;47.20
32217;DHT22;67098;51.140;4.088;2023-07-20T11:11:39;32.50;46.70
32217;DHT22;67098;51.140;4.088;2023-07-20T11:14:07;32.30;46.80
32217;DHT22;67098;51.140;4.088;2023-07-20T11:16:44;32.10;47.30
32217;DHT22;67098;51.140;4.088;2023-07-20T11:19:28;31.80;47.20
32217;DHT22;67098;51.140;4.088;2023-07-20T11:21:56;31.80;47.50
32217;DHT22;67098;51.140;4.088;2023-07-20T11:24:22;32.10;47.00
32217;DHT22;67098;51.140;4.088;2023-07-20T11:26:52;32.70;46.70
32217;DHT22;67098;51.140;4.088;2023-07-20T11:29:22;32.80;46.90
32217;DHT22;67098;51.140;4.088;2023-07-20T11:31:49;32.60;46.70
32217;DHT22;67098;51.140;4.088;2023-07-20T11:34:16;32.20;46.40
32217;DHT22;67098;51.140;4.088;2023-07-20T11:36:45;31.80;46.60
32217;DHT22;67098;51.140;4.088;2023-07-20T11:39:14;31.40;47.50
32217;DHT22;67098;51.140;4.088;2023-07-20T11:41:54;30.90;47.80
32217;DHT22;67098;51.140;4.088;2023-07-20T11:44:21;30.60;48.60
32217;DHT22;67098;51.140;4.088;2023-07-20T11:47:00;30.20;49.10
32217;DHT22;67098;51.140;4.088;2023-07-20T11:49:28;29.90;50.10
32217;DHT22;67098;51.140;4.088;2023-07-20T11:51:54;29.60;50.10
32217;DHT22;67098;51.140;4.088;2023-07-20T11:54:20;29.50;50.30
32217;DHT22;67098;51.140;4.088;2023-07-20T11:56:46;29.30;50.70
32217;DHT22;67098;51.140;4.088;2023-07-20T11:59:12;29.40;50.80
32217;DHT22;67098;51.140;4.088;2023-07-20T12:01:38;29.40;50.80
32217;DHT22;67098;51.140;4.088;2023-07-20T12:04:04;29.30;51.30
32217;DHT22;67098;51.140;4.088;2023-07-20T12:06:30;29.20;51.10
32217;DHT22;67098;51.140;4.088;2023-07-20T12:08:57;29.10;51.40
32217;DHT22;67098;51.140;4.088;2023-07-20T12:11:39;29.10;51.40
32217;DHT22;67098;51.140;4.088;2023-07-20T12:14:08;29.20;51.50
32217;DHT22;67098;51.140;4.088;2023-07-20T12:16:35;29.40;51.60
32217;DHT22;67098;51.140;4.088;2023-07-20T12:19:02;29.50;51.40
32217;DHT22;67098;51.140;4.088;2023-07-20T12:21:29;29.60;51.40
32217;DHT22;67098;51.140;4.088;2023-07-20T12:23:57;29.70;51.50
32217;DHT22;67098;51.140;4.088;2023-07-20T12:26:24;29.60;51.30
32217;DHT22;67098;51.140;4.088;2023-07-20T12:28:51;29.50;51.30
32217;DHT22;67098;51.140;4.088;2023-07-20T12:31:18;29.40;51.10
32217;DHT22;67098;51.140;4.088;2023-07-20T12:33:43;29.30;51.50
32217;DHT22;67098;51.140;4.088;2023-07-20T12:36:10;29.10;51.80
32217;DHT22;67098;51.140;4.088;2023-07-20T12:38:36;28.80;52.40
32217;DHT22;67098;51.140;4.088;2023-07-20T12:41:02;28.60;52.30
32217;DHT22;67098;51.140;4.088;2023-07-20T12:43:29;28.50;52.70
32217;DHT22;67098;51.140;4.088;2023-07-20T12:45:55;28.30;53.70
32217;DHT22;67098;51.140;4.088;2023-07-20T12:48:21;28.10;53.90
32217;DHT22;67098;51.140;4.088;2023-07-20T12:50:47;28.00;54.20
32217;DHT22;67098;51.140;4.088;2023-07-20T12:53:13;27.90;55.50
32217;DHT22;67098;51.140;4.088;2023-07-20T12:55:39;27.70;55.70
32217;DHT22;67098;51.140;4.088;2023-07-20T12:58:06;27.60;56.00
32217;DHT22;67098;51.140;4.088;2023-07-20T13:00:32;27.50;56.40
32217;DHT22;67098;51.140;4.088;2023-07-20T13:02:58;27.50;56.80
32217;DHT22;67098;51.140;4.088;2023-07-20T13:05:24;27.50;56.80
32217;DHT22;67098;51.140;4.088;2023-07-20T13:07:49;27.40;56.80
32217;DHT22;67098;51.140;4.088;2023-07-20T13:10:15;27.50;57.00
32217;DHT22;67098;51.140;4.088;2023-07-20T13:12:41;27.70;57.10
32217;DHT22;67098;51.140;4.088;2023-07-20T13:15:09;28.10;56.30
32217;DHT22;67098;51.140;4.088;2023-07-20T13:17:36;28.50;55.80
32217;DHT22;67098;51.140;4.088;2023-07-20T13:20:03;28.70;55.40
32217;DHT22;67098;51.140;4.088;2023-07-20T13:22:33;28.90;55.00
32217;DHT22;67098;51.140;4.088;2023-07-20T13:24:59;29.20;54.30
32217;DHT22;67098;51.140;4.088;2023-07-20T13:27:26;29.40;53.90
32217;DHT22;67098;51.140;4.088;2023-07-20T13:29:52;29.90;53.20
32217;DHT22;67098;51.140;4.088;2023-07-20T13:32:18;30.30;52.20
32217;DHT22;67098;51.140;4.088;2023-07-20T13:34:44;30.40;50.80
32217;DHT22;67098;51.140;4.088;2023-07-20T13:37:11;30.40;50.80
32217;DHT22;67098;51.140;4.088;2023-07-20T13:39:37;30.40;51.60
32217;DHT22;67098;51.140;4.088;2023-07-20T13:42:04;30.40;51.30
32217;DHT22;67098;51.140;4.088;2023-07-20T13:44:34;30.30;51.10
32217;DHT22;67098;51.140;4.088;2023-07-20T13:47:03;30.20;50.90
32217;DHT22;67098;51.140;4.088;2023-07-20T13:49:30;30.20;50.90
32217;DHT22;67098;51.140;4.088;2023-07-20T13:51:56;30.10;51.10
32217;DHT22;67098;51.140;4.088;2023-07-20T13:54:23;30.00;51.10
32217;DHT22;67098;51.140;4.088;2023-07-20T13:56:49;29.90;50.10
32217;DHT22;67098;51.140;4.088;2023-07-20T13:59:15;29.90;50.00
32217;DHT22;67098;51.140;4.088;2023-07-20T14:01:40;29.80;50.30
32217;DHT22;67098;51.140;4.088;2023-07-20T14:04:06;29.70;51.10
32217;DHT22;67098;51.140;4.088;2023-07-20T14:06:33;29.70;51.60
32217;DHT22;67098;51.140;4.088;2023-07-20T14:08:59;29.60;51.80
32217;DHT22;67098;51.140;4.088;2023-07-20T14:11:25;29.60;51.90
32217;DHT22;67098;51.140;4.088;2023-07-20T14:13:54;29.50;51.90
32217;DHT22;67098;51.140;4.088;2023-07-20T14:16:23;29.40;51.70
32217;DHT22;67098;51.140;4.088;2023-07-20T14:18:49;29.40;51.70
32217;DHT22;67098;51.140;4.088;2023-07-20T14:21:19;29.30;51.40
32217;DHT22;67098;51.140;4.088;2023-07-20T14:23:50;29.20;51.40
32217;DHT22;67098;51.140;4.088;2023-07-20T14:26:16;29.10;52.00
32217;DHT22;67098;51.140;4.088;2023-07-20T14:28:42;29.10;52.30
32217;DHT22;67098;51.140;4.088;2023-07-20T14:31:08;29.00;51.90
32217;DHT22;67098;51.140;4.088;2023-07-20T14:33:33;28.90;51.50
32217;DHT22;67098;51.140;4.088;2023-07-20T14:35:59;28.20;52.40
32217;DHT22;67098;51.140;4.088;2023-07-20T14:38:27;27.90;51.70
32217;DHT22;67098;51.140;4.088;2023-07-20T14:40:54;27.60;52.70
32217;DHT22;67098;51.140;4.088;2023-07-20T14:43:20;27.60;52.40
32217;DHT22;67098;51.140;4.088;2023-07-20T14:45:46;27.40;52.70
32217;DHT22;67098;51.140;4.088;2023-07-20T14:48:12;27.30;52.60
32217;DHT22;67098;51.140;4.088;2023-07-20T14:50:38;27.10;53.50
32217;DHT22;67098;51.140;4.088;2023-07-20T14:53:04;26.90;53.20
32217;DHT22;67098;51.140;4.088;2023-07-20T14:55:29;26.80;53.30
32217;DHT22;67098;51.140;4.088;2023-07-20T14:57:55;26.70;53.50
32217;DHT22;67098;51.140;4.088;2023-07-20T15:00:21;26.50;54.50
32217;DHT22;67098;51.140;4.088;2023-07-20T15:02:47;26.30;54.90
32217;DHT22;67098;51.140;4.088;2023-07-20T15:05:20;26.10;54.80
32217;DHT22;67098;51.140;4.088;2023-07-20T15:07:46;25.90;55.80
32217;DHT22;67098;51.140;4.088;2023-07-20T15:10:12;25.80;57.10
32217;DHT22;67098;51.140;4.088;2023-07-20T15:12:38;25.60;57.40
32217;DHT22;67098;51.140;4.088;2023-07-20T15:15:07;25.60;58.20
32217;DHT22;67098;51.140;4.088;2023-07-20T15:17:34;25.50;59.60
32217;DHT22;67098;51.140;4.088;2023-07-20T15:20:01;25.60;60.10
32217;DHT22;67098;51.140;4.088;2023-07-20T15:22:30;25.60;60.60
32217;DHT22;67098;51.140;4.088;2023-07-20T15:24:56;25.70;61.20
32217;DHT22;67098;51.140;4.088;2023-07-20T15:27:22;25.70;61.40
32217;DHT22;67098;51.140;4.088;2023-07-20T15:29:49;25.70;61.50
32217;DHT22;67098;51.140;4.088;2023-07-20T15:32:17;25.60;61.70
32217;DHT22;67098;51.140;4.088;2023-07-20T15:34:43;25.50;62.70
32217;DHT22;67098;51.140;4.088;2023-07-20T15:37:09;25.40;62.70
32217;DHT22;67098;51.140;4.088;2023-07-20T15:39:36;25.30;62.80
32217;DHT22;67098;51.140;4.088;2023-07-20T15:42:02;25.30;63.40
32217;DHT22;67098;51.140;4.088;2023-07-20T15:44:28;25.30;64.10